Time;durP1;ratioP1;P1;durP2;ratioP2;P2;SDS_P1;SDS_P2;PMS_P1;PMS_P2;Temp;Humidity;BMP_temperature;BMP_pressure;BME280_temperature;BME280_humidity;BME280_pressure;Samples;Min_cycle;Max_cycle;Signal;HPM_P1;HPM_P2
2022/10/09 00:00:51;;;;;;;30.35;19.42;;;;;;;12.70;100.00;100927.81;4986794;28;20042;-74
2022/10/09 00:03:17;;;;;;;24.17;16.75;;;;;;;12.61;99.84;100914.66;4961379;28;20354;-73
2022/10/09 00:05:44;;;;;;;29.38;18.85;;;;;;;12.87;98.59;100906.72;5010361;28;20505;-74
2022/10/09 00:08:09;;;;;;;35.97;24.23;;;;;;;12.45;98.22;100811.13;4998302;28;20114;-74
2022/10/09 00:10:40;;;;;;;33.65;27.75;;;;;;;12.29;99.87;100817.28;4993405;28;20478;-74
2022/10/09 00:13:06;;;;;;;31.90;18.73;;;;;;;12.50;98.75;100897.97;4997159;28;20049;-73
2022/10/09 00:15:31;;;;;;;36.35;19.85;;;;;;;11.98;98.91;100833.03;4977794;28;20042;-73
2022/10/09 00:17:57;;;;;;;29.58;18.08;;;;;;;12.00;98.11;100810.25;4989976;28;20224;-74
2022/10/09 00:20:22;;;;;;;31.13;20.20;;;;;;;12.53;97.84;100867.28;4987962;28;20475;-73
2022/10/09 00:22:47;;;;;;;35.72;23.45;;;;;;;11.90;99.61;100756.78;4998993;28;20438;-73
2022/10/09 00:25:13;;;;;;;28.95;22.60;;;;;;;12.01;99.77;100778.72;5007235;28;20046;-74
2022/10/09 00:27:39;;;;;;;34.50;22.38;;;;;;;12.78;99.86;100907.63;4999189;28;20068;-74
2022/10/09 00:30:05;;;;;;;24.83;19.42;;;;;;;12.03;98.87;100771.69;5018304;28;20088;-74
2022/10/09 00:32:30;;;;;;;30.75;23.75;;;;;;;12.07;99.14;100771.69;4993781;28;20397;-73
2022/10/09 00:34:56;;;;;;;36.97;22.48;;;;;;;12.74;99.37;100886.56;5012207;28;20036;-73
2022/10/09 00:37:21;;;;;;;33.88;19.83;;;;;;;12.56;99.20;100855.88;5000146;28;20120;-73
2022/10/09 00:39:46;;;;;;;36.20;21.58;;;;;;;11.97;100.00;100794.50;4998998;28;20104;-74
2022/10/09 00:42:12;;;;;;;42.58;22.23;;;;;;;12.49;100.00;100894.47;5014241;28;20473;-73
2022/10/09 00:44:51;;;;;;;36.40;24.00;;;;;;;12.51;100.00;100902.38;5025983;28;20819;-74
2022/10/09 00:47:48;;;;;;;26.55;20.38;;;;;;;12.51;100.00;100895.34;5011039;28;20061;-74
2022/10/09 00:50:19;;;;;;;31.65;21.20;;;;;;;11.72;100.00;100762.00;4997768;28;20034;-75
2022/10/09 00:52:48;;;;;;;28.80;22.20;;;;;;;11.73;100.00;100772.53;4999501;28;20049;-75
2022/10/09 00:55:14;;;;;;;35.95;21.33;;;;;;;12.19;100.00;100867.25;5012001;28;20046;-74
2022/10/09 00:57:41;;;;;;;23.70;17.52;;;;;;;11.71;100.00;100792.69;5017915;28;20040;-73
2022/10/09 01:00:10;;;;;;;33.47;20.00;;;;;;;12.09;100.00;100875.16;5010404;28;20116;-73
2022/10/09 01:02:36;;;;;;;28.88;20.65;;;;;;;11.85;100.00;100824.25;4997994;28;20409;-73
2022/10/09 01:05:02;;;;;;;31.30;19.10;;;;;;;11.51;100.00;100770.72;5003106;28;20038;-73
2022/10/09 01:07:28;;;;;;;26.67;20.42;;;;;;;12.22;100.00;100895.31;5012931;28;20528;-74
2022/10/09 01:10:00;;;;;;;28.35;21.02;;;;;;;12.16;100.00;100896.19;4988850;28;20072;-74
2022/10/09 01:12:40;;;;;;;27.35;18.27;;;;;;;12.10;99.75;100898.81;4989607;28;20037;-73
2022/10/09 01:15:18;;;;;;;23.02;17.00;;;;;;;12.34;96.94;100894.44;5006290;28;20117;-74
2022/10/09 01:18:04;;;;;;;27.17;19.30;;;;;;;11.72;98.95;100793.53;5023634;28;20041;-72
2022/10/09 01:20:48;;;;;;;29.40;20.30;;;;;;;12.14;100.00;100903.22;4987831;28;20128;-74
2022/10/09 01:23:41;;;;;;;33.17;19.58;;;;;;;12.18;99.43;100896.22;5005675;28;20052;-74
2022/10/09 01:26:15;;;;;;;33.85;18.58;;;;;;;12.00;99.35;100874.25;5025415;28;20502;-75
2022/10/09 01:28:46;;;;;;;34.22;18.65;;;;;;;11.74;99.70;100826.84;4992393;28;20046;-74
2022/10/09 01:31:13;;;;;;;29.33;20.27;;;;;;;11.93;100.00;100880.38;4994799;28;20425;-74
2022/10/09 01:33:39;;;;;;;28.05;19.75;;;;;;;12.04;100.00;100898.81;4974464;28;20094;-72
2022/10/09 01:36:07;;;;;;;25.73;17.48;;;;;;;11.92;99.90;100870.75;4997968;28;20026;-74
2022/10/09 01:38:33;;;;;;;36.13;19.33;;;;;;;11.99;100.00;100900.56;4990955;28;20038;-74
2022/10/09 01:41:03;;;;;;;30.27;20.20;;;;;;;11.97;100.00;100903.19;4996101;28;20043;-73
2022/10/09 01:43:28;;;;;;;33.45;18.10;;;;;;;11.32;99.58;100783.81;4991988;28;20101;-74
2022/10/09 01:46:19;;;;;;;25.77;18.85;;;;;;;11.93;98.25;100900.53;4987242;28;20481;-73
2022/10/09 01:49:32;;;;;;;28.63;17.75;;;;;;;11.95;97.46;100894.41;4984953;28;20105;-74
2022/10/09 01:52:26;;;;;;;22.55;16.48;;;;;;;12.11;96.64;100912.88;4989195;28;20601;-73
2022/10/09 01:55:18;;;;;;;26.88;16.98;;;;;;;11.99;97.10;100897.94;5006089;28;20036;-74
2022/10/09 01:58:13;;;;;;;25.85;17.45;;;;;;;11.96;98.50;100893.56;4994257;28;20054;-72
2022/10/09 02:00:47;;;;;;;35.30;18.73;;;;;;;12.05;98.46;100897.94;4950638;28;20386;-73
2022/10/09 02:03:15;;;;;;;24.73;17.85;;;;;;;11.74;98.94;100837.38;4999557;28;20045;-73
2022/10/09 02:05:46;;;;;;;25.20;18.35;;;;;;;11.20;99.65;100760.16;4999814;28;20080;-72
2022/10/09 02:08:15;;;;;;;30.48;19.77;;;;;;;11.68;99.63;100862.75;4994733;28;20437;-72
2022/10/09 02:10:43;;;;;;;27.08;18.45;;;;;;;11.80;100.00;100887.34;4994114;28;20052;-72
2022/10/09 02:13:08;;;;;;;23.65;16.83;;;;;;;11.87;100.00;100880.38;5004488;28;20041;-74
2022/10/09 02:15:43;;;;;;;28.00;18.15;;;;;;;11.90;100.00;100884.78;4987312;28;20035;-74
2022/10/09 02:18:12;;;;;;;41.88;16.52;;;;;;;11.55;99.87;100831.19;4988171;28;20060;-72
2022/10/09 02:20:44;;;;;;;21.40;16.58;;;;;;;11.80;100.00;100882.09;5001198;28;20042;-74
2022/10/09 02:23:11;;;;;;;21.80;16.83;;;;;;;11.88;100.00;100891.78;4987253;28;20464;-73
2022/10/09 02:25:37;;;;;;;30.08;15.65;;;;;;;11.94;100.00;100894.41;5002581;28;20049;-73
2022/10/09 02:28:04;;;;;;;22.80;16.90;;;;;;;11.79;99.59;100880.31;5000949;28;20475;-73
2022/10/09 02:30:46;;;;;;;22.75;16.73;;;;;;;11.70;99.74;100872.41;4986144;28;20510;-73
2022/10/09 02:33:12;;;;;;;26.77;16.10;;;;;;;11.12;99.81;100775.00;4991552;28;20042;-73
2022/10/09 02:35:38;;;;;;;18.60;14.35;;;;;;;11.83;99.62;100895.22;4987446;28;20467;-74
2022/10/09 02:38:03;;;;;;;26.58;16.92;;;;;;;11.98;98.76;100899.66;5001448;28;20305;-73
2022/10/09 02:40:29;;;;;;;23.40;17.10;;;;;;;10.86;98.50;100735.50;5000232;28;20046;-73
2022/10/09 02:42:54;;;;;;;25.40;17.00;;;;;;;11.07;98.74;100772.34;4994838;28;20111;-74
2022/10/09 02:45:20;;;;;;;21.17;15.55;;;;;;;11.96;98.75;100900.53;4987527;28;20022;-73
2022/10/09 02:47:45;;;;;;;25.13;16.92;;;;;;;11.23;98.27;100765.41;4997143;28;20034;-74
2022/10/09 02:50:11;;;;;;;27.15;16.52;;;;;;;11.68;98.81;100857.50;4997398;28;20060;-73
2022/10/09 02:52:36;;;;;;;33.85;17.10;;;;;;;11.18;99.18;100778.53;4996257;28;20041;-74
2022/10/09 02:55:03;;;;;;;20.92;15.38;;;;;;;11.82;100.00;100905.72;4996542;28;20849;-74
2022/10/09 02:57:28;;;;;;;25.95;16.40;;;;;;;11.74;100.00;100905.72;4990069;28;20034;-74
2022/10/09 02:59:54;;;;;;;22.08;16.95;;;;;;;11.58;100.00;100873.25;4989094;28;20026;-74
2022/10/09 03:02:19;;;;;;;26.92;17.63;;;;;;;11.69;100.00;100894.31;4981048;28;20054;-74
2022/10/09 03:04:45;;;;;;;21.02;15.75;;;;;;;11.64;100.00;100893.44;5003395;28;20041;-74
2022/10/09 03:07:10;;;;;;;20.17;16.17;;;;;;;11.65;100.00;100894.31;5000052;28;20544;-74
2022/10/09 03:09:35;;;;;;;23.88;17.08;;;;;;;11.06;100.00;100785.50;4993603;28;20034;-73
2022/10/09 03:12:01;;;;;;;27.13;15.95;;;;;;;11.20;100.00;100834.56;4994612;28;20022;-74
2022/10/09 03:14:27;;;;;;;25.70;15.50;;;;;;;11.61;100.00;100909.16;4992647;28;20483;-73
2022/10/09 03:16:53;;;;;;;21.05;14.98;;;;;;;11.62;100.00;100905.69;4981661;28;20395;-73
2022/10/09 03:19:18;;;;;;;30.27;16.65;;;;;;;11.46;100.00;100886.34;5000838;28;20038;-74
2022/10/09 03:21:44;;;;;;;29.38;18.00;;;;;;;11.57;100.00;100902.16;5003461;28;20497;-73
2022/10/09 03:24:09;;;;;;;24.58;17.30;;;;;;;11.00;100.00;100802.09;5006933;28;20042;-73
2022/10/09 03:26:35;;;;;;;22.23;17.60;;;;;;;11.74;100.00;100894.34;4984582;28;20050;-73
2022/10/09 03:29:00;;;;;;;20.73;17.17;;;;;;;11.03;99.18;100767.97;5000007;28;20053;-73
2022/10/09 03:31:26;;;;;;;29.17;17.40;;;;;;;11.08;97.95;100761.00;4987797;28;20128;-73
2022/10/09 03:33:52;;;;;;;26.90;18.17;;;;;;;11.77;98.98;100903.09;5003535;28;20053;-73
2022/10/09 03:36:17;;;;;;;25.27;17.02;;;;;;;11.71;98.96;100907.47;4991895;28;20021;-73
2022/10/09 03:38:43;;;;;;;27.70;17.92;;;;;;;10.74;98.93;100759.97;5008497;28;20061;-75
2022/10/09 03:41:08;;;;;;;28.23;18.45;;;;;;;10.82;99.58;100774.00;5006511;28;20489;-74
2022/10/09 03:43:34;;;;;;;26.05;18.70;;;;;;;11.27;98.92;100826.72;5009199;28;20049;-73
2022/10/09 03:46:07;;;;;;;29.45;18.70;;;;;;;11.13;99.45;100801.28;5006009;28;20077;-73
2022/10/09 03:48:32;;;;;;;23.73;19.10;;;;;;;11.27;99.75;100830.22;5014650;28;20038;-74
2022/10/09 03:50:58;;;;;;;33.13;18.35;;;;;;;11.60;99.80;100899.53;5014339;28;20101;-72
2022/10/09 03:53:23;;;;;;;29.27;18.67;;;;;;;10.97;100.00;100797.69;5006603;28;20042;-74
2022/10/09 03:55:49;;;;;;;23.98;18.65;;;;;;;11.50;100.00;100901.25;5009794;28;20092;-74
2022/10/09 03:58:14;;;;;;;30.55;18.52;;;;;;;11.44;100.00;100901.22;5004655;28;20054;-74
2022/10/09 04:00:42;;;;;;;22.42;17.50;;;;;;;11.34;100.00;100878.41;5009219;28;20474;-73
2022/10/09 04:03:07;;;;;;;29.15;18.83;;;;;;;11.49;100.00;100906.50;5009802;28;20089;-73
2022/10/09 04:05:34;;;;;;;23.77;18.98;;;;;;;10.97;100.00;100815.22;5006611;28;20829;-74
2022/10/09 04:07:59;;;;;;;32.85;18.17;;;;;;;10.88;100.00;100781.91;4990806;28;20039;-73
2022/10/09 04:10:25;;;;;;;31.20;17.02;;;;;;;10.68;100.00;100758.19;4995471;28;20402;-74
2022/10/09 04:12:50;;;;;;;26.58;17.15;;;;;;;11.16;100.00;100850.31;4995076;28;20559;-74
2022/10/09 04:15:15;;;;;;;24.65;18.83;;;;;;;10.63;100.00;100759.03;4989029;28;20029;-74
2022/10/09 04:17:41;;;;;;;29.02;19.08;;;;;;;10.70;100.00;100760.81;5003255;28;20028;-74
2022/10/09 04:20:07;;;;;;;22.50;17.58;;;;;;;10.80;100.00;100775.75;4997808;28;20041;-74
2022/10/09 04:22:32;;;;;;;23.85;18.15;;;;;;;11.56;100.00;100892.50;4998875;28;20052;-74
2022/10/09 04:24:57;;;;;;;23.38;17.50;;;;;;;10.94;100.00;100804.69;5000531;28;20038;-73
2022/10/09 04:27:23;;;;;;;25.40;17.77;;;;;;;11.39;100.00;100906.47;5001856;28;20109;-73
2022/10/09 04:29:48;;;;;;;26.73;18.63;;;;;;;11.39;100.00;100901.19;5003055;28;20459;-73
2022/10/09 04:32:14;;;;;;;27.25;17.67;;;;;;;10.57;100.00;100752.00;4997254;28;20042;-74
2022/10/09 04:34:39;;;;;;;22.50;16.27;;;;;;;11.49;99.73;100912.63;5004028;28;20107;-72
2022/10/09 04:37:05;;;;;;;27.58;16.52;;;;;;;11.27;99.30;100876.63;5001093;28;20371;-74
2022/10/09 04:39:30;;;;;;;29.95;17.30;;;;;;;11.53;99.02;100916.16;5004696;28;20482;-73
2022/10/09 04:41:56;;;;;;;21.25;16.35;;;;;;;10.63;98.50;100751.16;4996686;28;20021;-73
2022/10/09 04:44:21;;;;;;;17.80;14.32;;;;;;;10.86;97.72;100824.78;5012849;28;20050;-73
2022/10/09 04:46:50;;;;;;;23.00;15.27;;;;;;;11.61;97.02;100922.31;5007795;28;20038;-73
2022/10/09 04:49:15;;;;;;;20.88;14.02;;;;;;;11.62;96.75;100919.69;5008170;28;20745;-73
2022/10/09 04:51:42;;;;;;;21.33;13.27;;;;;;;10.88;96.65;100797.66;4998054;28;20045;-73
2022/10/09 04:54:15;;;;;;;24.38;15.38;;;;;;;10.81;96.60;100788.00;5005048;28;20041;-73
2022/10/09 04:56:46;;;;;;;13.77;12.27;;;;;;;11.54;96.95;100915.28;5000202;28;20050;-72
2022/10/09 04:59:12;;;;;;;21.63;15.23;;;;;;;11.66;96.82;100931.13;5007971;28;20119;-74
2022/10/09 05:01:37;;;;;;;20.10;14.95;;;;;;;11.68;96.74;100931.97;5008263;28;20034;-74
2022/10/09 05:04:03;;;;;;;25.15;14.60;;;;;;;11.66;95.35;100911.81;5005490;28;20422;-75
2022/10/09 05:06:28;;;;;;;19.55;13.57;;;;;;;11.52;96.98;100936.31;5007984;28;20021;-74
2022/10/09 05:08:54;;;;;;;17.92;13.15;;;;;;;10.41;97.12;100800.00;5000052;28;20035;-75
2022/10/09 05:11:24;;;;;;;15.63;12.98;;;;;;;11.47;95.49;100951.19;5006768;28;20046;-75
2022/10/09 05:13:54;;;;;;;16.05;11.23;;;;;;;11.61;94.00;100946.88;5008105;28;20113;-74
2022/10/09 05:16:23;;;;;;;17.25;13.32;;;;;;;11.55;94.08;100941.56;5007858;28;20101;-74
2022/10/09 05:18:51;;;;;;;20.05;12.88;;;;;;;10.75;94.86;100822.09;4995138;28;20523;-73
2022/10/09 05:21:17;;;;;;;16.00;11.80;;;;;;;10.80;93.81;100822.13;5004864;28;20033;-73
2022/10/09 05:23:42;;;;;;;18.02;12.85;;;;;;;11.71;93.26;100947.78;5008349;28;20030;-72
2022/10/09 05:26:11;;;;;;;14.68;11.63;;;;;;;11.61;93.66;100949.50;4990651;28;20444;-74
2022/10/09 05:28:37;;;;;;;16.63;12.52;;;;;;;10.96;93.10;100837.09;5009782;28;20062;-74
2022/10/09 05:31:04;;;;;;;17.45;12.13;;;;;;;11.77;93.09;100968.81;5002858;28;20031;-75
2022/10/09 05:33:30;;;;;;;15.77;12.10;;;;;;;10.98;93.95;100824.84;5001095;28;20017;-71
2022/10/09 05:35:57;;;;;;;18.98;12.88;;;;;;;11.66;93.42;100960.03;5005071;28;20430;-73
2022/10/09 05:38:24;;;;;;;16.45;13.05;;;;;;;11.70;93.03;100950.41;5002096;28;20101;-73
2022/10/09 05:41:02;;;;;;;24.63;13.93;;;;;;;11.92;93.79;100978.56;5005610;28;20045;-76
2022/10/09 05:43:31;;;;;;;19.63;12.80;;;;;;;11.42;90.91;100879.31;5017315;28;20081;-74
2022/10/09 05:46:08;;;;;;;18.35;11.57;;;;;;;11.27;90.76;100837.22;5011014;28;20065;-74
2022/10/09 05:48:34;;;;;;;22.23;11.35;;;;;;;12.10;90.13;100976.84;4999173;28;20065;-74
2022/10/09 05:51:23;;;;;;;19.48;11.27;;;;;;;11.37;90.25;100854.78;5008074;28;20470;-74
2022/10/09 05:53:50;;;;;;;15.27;10.90;;;;;;;12.11;89.77;100981.25;5006466;28;20061;-74
2022/10/09 05:56:19;;;;;;;23.10;12.73;;;;;;;11.70;89.71;100910.97;5002866;28;20073;-73
2022/10/09 05:58:51;;;;;;;15.60;11.65;;;;;;;11.20;90.99;100865.22;5010233;28;20045;-74
2022/10/09 06:01:17;;;;;;;17.38;11.48;;;;;;;12.02;90.55;100997.88;5001932;28;20410;-73
2022/10/09 06:03:51;;;;;;;15.65;12.35;;;;;;;11.96;90.68;100967.19;5006530;28;20038;-76
2022/10/09 06:06:17;;;;;;;24.30;11.05;;;;;;;12.18;90.79;100988.28;5006980;28;20033;-74
2022/10/09 06:08:43;;;;;;;18.83;10.65;;;;;;;12.29;89.84;100973.41;5002775;28;20038;-74
2022/10/09 06:11:11;;;;;;;16.67;11.25;;;;;;;12.53;89.25;100991.00;5014495;28;20071;-72
2022/10/09 06:13:37;;;;;;;20.42;11.07;;;;;;;12.07;87.40;100903.22;5018972;28;20394;-73
2022/10/09 06:16:02;;;;;;;14.90;11.43;;;;;;;12.78;86.81;101007.69;4999173;28;20041;-74
2022/10/09 06:18:28;;;;;;;14.48;11.27;;;;;;;12.69;86.74;100994.53;5011118;28;20489;-74
2022/10/09 06:20:56;;;;;;;14.50;10.00;;;;;;;10.96;85.50;100714.56;5012516;28;20038;-73
2022/10/09 06:23:21;;;;;;;13.02;10.30;;;;;;;12.96;84.96;101014.72;4989788;28;20060;-74
2022/10/09 06:26:11;;;;;;;15.25;10.85;;;;;;;13.06;84.36;101021.75;5004692;28;20693;-73
2022/10/09 06:28:37;;;;;;;15.45;11.27;;;;;;;12.64;83.92;100925.16;4999824;28;20082;-74
2022/10/09 06:31:06;;;;;;;13.35;8.65;;;;;;;13.31;84.65;101032.28;5003168;28;20040;-73
2022/10/09 06:33:33;;;;;;;12.30;9.88;;;;;;;13.26;83.78;100998.00;5015762;28;20034;-73
2022/10/09 06:36:01;;;;;;;16.40;9.75;;;;;;;12.84;83.11;100909.38;5010585;28;20058;-73
2022/10/09 06:38:26;;;;;;;13.20;9.52;;;;;;;13.50;83.40;101014.69;5006832;28;20046;-74
2022/10/09 06:40:52;;;;;;;12.65;9.40;;;;;;;13.02;83.18;100926.91;5009632;28;20099;-72
2022/10/09 06:43:17;;;;;;;20.35;9.85;;;;;;;13.22;81.40;100932.13;5004764;28;20519;-74
2022/10/09 06:45:43;;;;;;;14.93;9.23;;;;;;;13.13;81.24;100900.53;5019003;28;20103;-73
2022/10/09 06:48:08;;;;;;;15.63;10.35;;;;;;;13.91;81.20;101011.91;5016398;28;20022;-73
2022/10/09 06:50:35;;;;;;;12.25;7.95;;;;;;;13.92;79.83;101004.88;5018502;28;20051;-74
2022/10/09 06:53:04;;;;;;;16.95;8.57;;;;;;;13.20;79.64;100865.38;5010849;28;20471;-73
2022/10/09 06:55:31;;;;;;;13.50;9.50;;;;;;;13.40;78.78;100886.44;5004671;28;20125;-74
2022/10/09 06:57:56;;;;;;;12.80;8.30;;;;;;;14.11;79.03;100997.75;5006620;28;20108;-74
2022/10/09 07:00:22;;;;;;;17.60;9.68;;;;;;;13.82;79.30;100948.63;5010055;28;20022;-73
2022/10/09 07:02:48;;;;;;;13.32;8.50;;;;;;;13.76;77.95;100919.66;5017423;28;20029;-73
2022/10/09 07:05:14;;;;;;;12.40;7.38;;;;;;;14.46;76.77;101020.44;5010474;28;20855;-74
2022/10/09 07:07:40;;;;;;;12.60;7.15;;;;;;;14.54;75.92;101016.91;5009929;28;20052;-74
2022/10/09 07:10:07;;;;;;;16.08;6.25;;;;;;;14.73;74.92;101035.25;4988959;28;20402;-73
2022/10/09 07:12:36;;;;;;;13.60;8.60;;;;;;;14.13;74.67;100898.34;4996611;28;20046;-74
2022/10/09 07:15:04;;;;;;;9.40;7.40;;;;;;;14.27;74.41;100909.66;5009440;28;20096;-73
2022/10/09 07:17:29;;;;;;;12.63;6.90;;;;;;;14.90;73.96;101006.06;5021631;28;20050;-74
2022/10/09 07:19:55;;;;;;;14.25;7.43;;;;;;;14.60;73.33;100930.56;4986012;28;20061;-73
2022/10/09 07:22:20;;;;;;;17.88;7.88;;;;;;;14.59;73.36;100907.72;5004906;28;20109;-73
2022/10/09 07:24:46;;;;;;;11.05;7.30;;;;;;;14.75;73.75;100927.81;5009234;28;20509;-73
2022/10/09 07:27:12;;;;;;;13.80;8.23;;;;;;;15.10;72.67;100990.00;5000087;28;20045;-73
2022/10/09 07:29:37;;;;;;;14.05;7.78;;;;;;;15.23;72.77;100990.78;4998201;28;20050;-73
2022/10/09 07:32:02;;;;;;;12.43;7.50;;;;;;;15.12;70.13;100959.16;4988512;28;20042;-73
2022/10/09 07:34:28;;;;;;;11.20;7.47;;;;;;;14.79;70.07;100887.25;4982371;28;20093;-73
2022/10/09 07:36:54;;;;;;;9.35;6.00;;;;;;;15.69;69.00;101033.50;4982282;28;20046;-74
2022/10/09 07:39:20;;;;;;;14.50;10.40;;;;;;;15.72;69.42;101030.84;4990465;28;20044;-73
2022/10/09 07:41:49;;;;;;;10.52;7.38;;;;;;;15.80;69.29;101031.66;4986491;28;20037;-72
2022/10/09 07:44:14;;;;;;;15.40;9.27;;;;;;;15.17;69.01;100896.53;4984324;28;20059;-72
2022/10/09 07:46:40;;;;;;;11.88;7.28;;;;;;;15.35;68.84;100922.78;4981621;28;20054;-74
2022/10/09 07:49:05;;;;;;;13.93;8.60;;;;;;;15.28;67.71;100905.22;4979051;28;20158;-73
2022/10/09 07:51:31;;;;;;;8.98;6.20;;;;;;;16.09;67.88;101027.75;4995068;28;20034;-74
2022/10/09 07:53:58;;;;;;;18.23;11.15;;;;;;;16.17;66.83;101006.47;4992110;28;20038;-73
2022/10/09 07:56:32;;;;;;;12.75;7.22;;;;;;;16.08;66.83;100974.81;4988971;28;20057;-73
2022/10/09 07:59:06;;;;;;;14.55;9.15;;;;;;;15.79;67.84;100929.31;4989251;28;20043;-73
2022/10/09 08:01:33;;;;;;;9.40;6.65;;;;;;;15.97;66.98;100928.22;4984136;28;20042;-74
2022/10/09 08:03:59;;;;;;;12.52;7.30;;;;;;;16.19;66.82;100936.72;4989414;28;20042;-73
2022/10/09 08:06:25;;;;;;;13.27;7.60;;;;;;;16.68;66.56;101022.53;4979679;28;20470;-74
2022/10/09 08:08:52;;;;;;;10.70;7.20;;;;;;;16.76;67.69;101040.94;4968857;28;20058;-74
2022/10/09 08:11:19;;;;;;;12.18;8.48;;;;;;;16.98;66.21;101044.19;4974093;28;20052;-74
2022/10/09 08:13:46;;;;;;;23.35;8.50;;;;;;;17.03;66.80;101040.53;4987010;28;20050;-73
2022/10/09 08:16:12;;;;;;;13.95;7.63;;;;;;;17.11;66.14;101042.19;4987325;28;20499;-74
2022/10/09 08:18:38;;;;;;;13.65;7.45;;;;;;;17.21;66.72;101041.16;4994052;28;20085;-73
2022/10/09 08:21:06;;;;;;;8.45;6.32;;;;;;;16.57;66.13;100929.06;4981659;28;20085;-74
2022/10/09 08:23:32;;;;;;;10.52;7.50;;;;;;;16.96;66.49;101014.16;4979029;28;20077;-73
2022/10/09 08:25:57;;;;;;;11.23;6.65;;;;;;;16.71;65.45;100920.88;4994204;28;20446;-74
2022/10/09 08:28:35;;;;;;;12.43;7.35;;;;;;;16.87;65.27;100931.22;4988320;28;20809;-73
2022/10/09 08:31:09;;;;;;;15.52;8.48;;;;;;;16.77;66.40;100918.16;4984362;28;20046;-74
2022/10/09 08:33:34;;;;;;;14.93;8.80;;;;;;;17.57;66.04;101033.41;4981336;28;20058;-74
2022/10/09 08:36:08;;;;;;;22.88;7.05;;;;;;;17.44;66.10;101001.81;4992677;28;20527;-73
2022/10/09 08:38:34;;;;;;;;;;;;;;;17.79;65.55;101036.50;4985094;28;20043;-74
2022/10/09 08:41:05;;;;;;;10.88;7.72;;;;;;;17.90;65.64;101031.91;4996890;28;19928;-74
2022/10/09 08:43:36;;;;;;;11.98;7.68;;;;;;;17.38;65.16;100932.06;4988316;28;20081;-73
2022/10/09 08:46:35;;;;;;;11.15;7.97;;;;;;;18.06;64.68;101006.78;4970616;28;20431;-74
2022/10/09 08:49:02;;;;;;;12.60;7.57;;;;;;;17.53;64.35;100907.88;4966751;28;20039;-73
2022/10/09 08:51:34;;;;;;;14.55;8.77;;;;;;;16.31;63.66;100670.81;4985372;28;20030;-73
2022/10/09 08:54:02;;;;;;;16.33;7.47;;;;;;;18.59;68.18;101034.84;4981907;28;20034;-74
2022/10/09 08:56:29;;;;;;;8.13;6.03;;;;;;;18.23;71.82;100899.28;4991157;28;20508;-73
2022/10/09 08:58:55;;;;;;;8.45;6.68;;;;;;;18.73;67.19;101003.47;4985637;28;20046;-71
2022/10/09 09:01:34;;;;;;;13.57;7.95;;;;;;;18.16;66.46;100942.84;4967209;28;20058;-71
2022/10/09 09:04:23;;;;;;;9.90;7.10;;;;;;;18.72;63.99;101023.88;4983028;28;20049;-72
2022/10/09 09:07:22;;;;;;;9.80;6.15;;;;;;;19.05;63.38;101041.75;4981684;28;20042;-70
2022/10/09 09:09:58;;;;;;;14.07;6.55;;;;;;;19.16;65.44;101024.59;4980224;28;20074;-71
2022/10/09 09:12:29;;;;;;;10.45;6.05;;;;;;;19.22;67.22;101026.22;4991503;28;20030;-70
2022/10/09 09:15:00;;;;;;;14.80;7.30;;;;;;;18.98;62.75;101022.41;4988299;28;20045;-72
2022/10/09 09:17:50;;;;;;;10.65;5.85;;;;;;;18.54;62.19;100918.88;4981137;28;20046;-71
2022/10/09 09:20:55;;;;;;;13.48;7.80;;;;;;;19.42;66.99;101023.03;4977800;28;20039;-71
2022/10/09 09:23:37;;;;;;;19.13;6.43;;;;;;;19.82;67.60;101017.50;4956481;28;20046;-72
2022/10/09 09:26:11;;;;;;;19.35;6.43;;;;;;;19.83;66.38;101015.75;4996908;28;20066;-70
2022/10/09 09:28:52;;;;;;;9.82;5.95;;;;;;;19.87;63.60;101003.19;4984354;28;20137;-67
2022/10/09 09:31:22;;;;;;;12.18;6.30;;;;;;;20.02;64.56;101016.94;4985124;28;20137;-71
2022/10/09 09:33:55;;;;;;;9.00;5.97;;;;;;;19.75;60.54;101015.94;4992189;28;20042;-72
2022/10/09 09:36:28;;;;;;;9.02;6.13;;;;;;;20.15;63.58;101012.09;4989789;28;20125;-69
2022/10/09 09:38:54;;;;;;;9.68;5.88;;;;;;;19.77;61.70;101014.13;4979368;28;20520;-70
2022/10/09 09:41:19;;;;;;;10.27;6.63;;;;;;;20.11;61.56;101013.16;4993189;28;20226;-72
2022/10/09 09:43:45;;;;;;;11.35;6.15;;;;;;;19.73;62.88;100937.88;4969191;28;20041;-71
2022/10/09 09:46:15;;;;;;;9.57;6.15;;;;;;;19.99;62.83;101019.72;4992980;28;20470;-70
2022/10/09 09:48:47;;;;;;;14.40;6.65;;;;;;;18.93;59.69;100912.59;4985010;28;20034;-68
2022/10/09 09:51:23;;;;;;;19.55;6.53;;;;;;;19.09;57.94;100886.47;4981557;28;20030;-78
2022/10/09 09:53:53;;;;;;;14.90;6.97;;;;;;;19.60;57.59;100941.81;4989663;28;20406;-78
2022/10/09 09:56:19;;;;;;;9.80;6.47;;;;;;;19.12;60.27;100910.31;4980681;28;20061;-77
2022/10/09 09:58:51;;;;;;;9.13;7.10;;;;;;;19.14;59.79;100904.03;4981462;28;20050;-77
2022/10/09 10:01:26;;;;;;;10.52;6.40;;;;;;;19.28;58.65;100910.78;4970275;28;20113;-80
2022/10/09 10:03:54;;;;;;;9.75;6.00;;;;;;;20.02;57.59;100984.97;4968591;28;20360;-79
2022/10/09 10:06:34;;;;;;;9.50;7.25;;;;;;;19.59;57.29;100908.97;4979036;28;20049;-79
2022/10/09 10:09:20;;;;;;;12.93;6.85;;;;;;;20.14;56.80;101005.06;4980782;28;20030;-78
2022/10/09 10:11:56;;;;;;;7.85;5.35;;;;;;;20.19;57.10;100988.91;4987628;28;20046;-80
2022/10/09 10:14:22;;;;;;;10.65;7.50;;;;;;;20.18;56.71;100992.50;4956561;28;20046;-79
2022/10/09 10:16:55;;;;;;;9.15;6.50;;;;;;;20.21;57.15;101011.06;4987290;28;20053;-80
2022/10/09 10:19:27;;;;;;;15.10;8.05;;;;;;;20.14;57.35;100994.38;4982526;28;20041;-79
2022/10/09 10:22:00;;;;;;;10.40;7.50;;;;;;;20.33;56.69;100997.38;4986453;28;20054;-81
2022/10/09 10:24:40;;;;;;;13.20;7.93;;;;;;;19.72;57.46;100898.88;5002463;28;20041;-79
2022/10/09 10:27:16;;;;;;;12.25;6.95;;;;;;;20.59;55.30;101006.38;4968500;28;20379;-80
2022/10/09 10:29:44;;;;;;;10.40;6.80;;;;;;;20.10;56.02;100858.66;4985722;28;20078;-81
2022/10/09 10:32:34;;;;;;;11.90;7.45;;;;;;;20.32;56.50;100931.66;4971276;28;20050;-78
2022/10/09 10:35:15;;;;;;;11.48;6.90;;;;;;;20.85;55.67;101001.03;4990435;28;20069;-78
2022/10/09 10:37:53;;;;;;;15.48;7.15;;;;;;;20.74;56.14;101000.50;4978385;28;20121;-81
2022/10/09 10:40:27;;;;;;;10.10;6.00;;;;;;;20.99;53.98;101000.59;4986285;28;20054;-78
2022/10/09 10:42:59;;;;;;;9.48;6.22;;;;;;;21.19;53.11;100996.34;4977857;28;20687;-79
2022/10/09 10:45:41;;;;;;;5.78;4.10;;;;;;;21.02;51.27;100951.56;4988563;28;20101;-80
2022/10/09 10:48:27;;;;;;;9.20;6.50;;;;;;;21.21;50.55;100986.50;4981646;28;20022;-79
2022/10/09 10:51:44;;;;;;;11.27;5.28;;;;;;;21.39;50.25;100983.19;4988423;28;20456;-79
2022/10/09 10:54:18;;;;;;;13.32;4.75;;;;;;;21.46;49.51;100986.53;4916314;28;20108;-78
2022/10/09 10:57:33;;;;;;;7.38;4.78;;;;;;;21.49;49.84;100989.97;4981743;28;20045;-79
2022/10/09 11:00:07;;;;;;;7.90;5.68;;;;;;;21.41;48.11;100953.78;4923661;28;20054;-79
2022/10/09 11:02:41;;;;;;;21.38;4.22;;;;;;;21.28;48.84;100978.25;4989824;28;20731;-78
2022/10/09 11:05:24;;;;;;;10.90;5.05;;;;;;;21.37;48.47;100982.34;4972577;28;20118;-80
2022/10/09 11:08:17;;;;;;;10.48;5.28;;;;;;;21.54;49.28;100984.47;4988871;28;20046;-79
2022/10/09 11:10:54;;;;;;;6.20;4.30;;;;;;;21.34;49.61;100978.94;4973994;28;20349;-80
2022/10/09 11:13:31;;;;;;;5.93;5.32;;;;;;;20.73;50.53;100880.56;4981888;28;20038;-79
2022/10/09 11:15:59;;;;;;;14.45;5.32;;;;;;;21.57;48.76;100964.78;4989796;28;20459;-80
2022/10/09 11:18:43;;;;;;;7.15;4.93;;;;;;;21.66;48.48;100965.31;4989979;28;20166;-79
2022/10/09 11:21:19;;;;;;;7.50;4.32;;;;;;;21.12;49.34;100926.31;4980669;28;20081;-80
2022/10/09 11:24:02;;;;;;;12.50;4.18;;;;;;;21.58;48.36;100970.06;4983615;28;20053;-79
2022/10/09 11:26:35;;;;;;;;;;;;;;;21.56;49.17;100963.91;4990396;28;20054;-79